Albuquerque, NM

6:24 AM MDT on September 18, 2014 (GMT -0600)
Vista Casitas | Change Station
CLOSE
Current Station
Personal Weather Station
Location: Albuquerque, NM
Elevation: 5466 ft
Nearby Weather Stations

Elev 5466 ft 35.19 °N, 106.74 °W | Updated 4 minutes ago

Clear
Clear
55.8 °F
Feels Like 55.8 °F
N
0.0
Wind Variable Wind from North
Gusts 0.0 mph

Today
High -- | Low -- °F
--% Chance of Precip.
Yesterday
High -- | Low -- °F
Precip. -- in
6:52 AM 7:09 PM
Waning Crescent, 27% visible
Pressure 29.89 in
Visibility 10.0 miles
Clouds Few 11000 ft
Dew Point 51 °F
Humidity 84%
Rainfall 0.00 in
Snow Depth 0 in , 0 in , 0 in
UV 0 out of 12
Pollen 1.40 out of 12
Air Quality Not available.
Flu Activity Not available.
METAR KABQ 181152Z 01006KT 10SM FEW110 15/12 A3008 RMK AO2 SLP122 70011 T01500117 10189 20150 56004

More Conditions Fewer Conditions

Pressure 29.89 in
Visibility 10.0 miles
Clouds Few 11000 ft
Dew Point 51 °F
Humidity 84%
Rainfall 0.00 in
Snow Depth 0 in , 0 in , 0 in
UV 0 out of 12
Pollen 1.40 out of 12
Air Quality Not available.
Flu Activity Not available.
METAR KABQ 181152Z 01006KT 10SM FEW110 15/12 A3008 RMK AO2 SLP122 70011 T01500117 10189 20150 56004

More Conditions Fewer Conditions

10-Day Weather Forecast

Almanac

Astronomy

Sep. 18, 2014 Rise Set
Actual Time 6:52 AM MDT 7:09 PM MDT
Civil Twilight 6:26 AM MDT 7:35 PM MDT
Nautical Twilight 5:57 AM MDT 8:04 PM MDT
Astronomical Twilight 5:27 AM MDT 8:34 PM MDT
Moon 1:55 AM MDT 3:54 PM MDT
Length of Visible Light 13h 08m
Length of Day
12h 17m
Tomorrow will be 2m 11s shorter.
Waning Crescent, 27% of the Moon is Illuminated
Today
Waning Crescent
Sep 24
New
Oct 1
First Quarter
Oct 8
Full
Oct 15
Last Quarter

Today's Extremes

State Highs State Lows

Community

WunderPhotos

Upload Photos

1,754,333 photos uploaded!

Nearby

Snow Depth

Station Depth Elevation
Red River Pass #2 0 in 9850 ft
Chamita 0 in 8400 ft
Rice Park 0 in 8460 ft
McKnight Cabin 0 in 9240 ft
Tolby 1 in 10180 ft

Earthquake Activity

City Distance Mag. Time & Date
No recent earthquake activity has been reported nearby.
Minimum magnitude displayed is 2.5.

Coastal Water Temperatures

Place Temperature
No Stations Reporting

Nearby Weather Stations